sensor_id;sensor_type;location;lat;lon;timestamp;P1;durP1;ratioP1;P2;durP2;ratioP2
63784;SDS011;49927;48.146;11.420;2022-09-16T00:01:14;9.77;;;5.82;;
63784;SDS011;49927;48.146;11.420;2022-09-16T00:03:41;9.05;;;6.40;;
63784;SDS011;49927;48.146;11.420;2022-09-16T00:06:11;7.82;;;5.90;;
63784;SDS011;49927;48.146;11.420;2022-09-16T00:08:42;8.20;;;5.65;;
63784;SDS011;49927;48.146;11.420;2022-09-16T00:11:08;10.43;;;6.10;;
63784;SDS011;49927;48.146;11.420;2022-09-16T00:13:34;7.45;;;5.38;;
63784;SDS011;49927;48.146;11.420;2022-09-16T00:16:00;10.40;;;6.25;;
63784;SDS011;49927;48.146;11.420;2022-09-16T00:18:25;9.63;;;6.88;;
63784;SDS011;49927;48.146;11.420;2022-09-16T00:20:51;7.97;;;5.90;;
63784;SDS011;49927;48.146;11.420;2022-09-16T00:23:17;8.52;;;6.43;;
63784;SDS011;49927;48.146;11.420;2022-09-16T00:25:48;9.88;;;6.00;;
63784;SDS011;49927;48.146;11.420;2022-09-16T00:28:14;7.47;;;6.30;;
63784;SDS011;49927;48.146;11.420;2022-09-16T00:30:39;7.50;;;5.65;;
63784;SDS011;49927;48.146;11.420;2022-09-16T00:33:05;8.30;;;6.32;;
63784;SDS011;49927;48.146;11.420;2022-09-16T00:35:30;8.85;;;6.13;;
63784;SDS011;49927;48.146;11.420;2022-09-16T00:37:56;8.15;;;6.30;;
63784;SDS011;49927;48.146;11.420;2022-09-16T00:40:21;10.32;;;5.75;;
63784;SDS011;49927;48.146;11.420;2022-09-16T00:42:48;6.45;;;5.55;;
63784;SDS011;49927;48.146;11.420;2022-09-16T00:45:15;8.82;;;5.22;;
63784;SDS011;49927;48.146;11.420;2022-09-16T00:47:42;12.60;;;7.35;;
63784;SDS011;49927;48.146;11.420;2022-09-16T00:50:11;7.63;;;5.80;;
63784;SDS011;49927;48.146;11.420;2022-09-16T00:52:38;9.82;;;5.72;;
63784;SDS011;49927;48.146;11.420;2022-09-16T00:55:05;7.78;;;5.40;;
63784;SDS011;49927;48.146;11.420;2022-09-16T00:57:33;7.63;;;6.22;;
63784;SDS011;49927;48.146;11.420;2022-09-16T01:00:00;11.40;;;6.80;;
63784;SDS011;49927;48.146;11.420;2022-09-16T01:02:26;9.60;;;6.00;;
63784;SDS011;49927;48.146;11.420;2022-09-16T01:04:53;10.27;;;6.22;;
63784;SDS011;49927;48.146;11.420;2022-09-16T01:07:25;8.27;;;6.68;;
63784;SDS011;49927;48.146;11.420;2022-09-16T01:09:53;8.27;;;6.05;;
63784;SDS011;49927;48.146;11.420;2022-09-16T01:12:18;10.43;;;6.72;;
63784;SDS011;49927;48.146;11.420;2022-09-16T01:14:44;9.55;;;6.47;;
63784;SDS011;49927;48.146;11.420;2022-09-16T01:17:12;10.02;;;6.57;;
63784;SDS011;49927;48.146;11.420;2022-09-16T01:19:54;9.60;;;5.75;;
63784;SDS011;49927;48.146;11.420;2022-09-16T01:22:35;8.52;;;6.20;;
63784;SDS011;49927;48.146;11.420;2022-09-16T01:25:10;7.90;;;6.18;;
63784;SDS011;49927;48.146;11.420;2022-09-16T01:30:49;7.97;;;5.88;;
63784;SDS011;49927;48.146;11.420;2022-09-16T01:33:25;9.63;;;6.25;;
63784;SDS011;49927;48.146;11.420;2022-09-16T01:36:17;7.40;;;5.63;;
63784;SDS011;49927;48.146;11.420;2022-09-16T01:38:58;7.75;;;6.60;;
63784;SDS011;49927;48.146;11.420;2022-09-16T01:41:31;9.35;;;7.28;;
63784;SDS011;49927;48.146;11.420;2022-09-16T01:44:05;9.82;;;7.10;;
63784;SDS011;49927;48.146;11.420;2022-09-16T01:46:39;9.43;;;6.22;;
63784;SDS011;49927;48.146;11.420;2022-09-16T01:49:11;8.18;;;5.90;;
63784;SDS011;49927;48.146;11.420;2022-09-16T01:51:43;8.15;;;5.90;;
63784;SDS011;49927;48.146;11.420;2022-09-16T01:54:12;8.55;;;5.80;;
63784;SDS011;49927;48.146;11.420;2022-09-16T01:56:45;7.80;;;6.40;;
63784;SDS011;49927;48.146;11.420;2022-09-16T01:59:17;9.15;;;6.05;;
63784;SDS011;49927;48.146;11.420;2022-09-16T02:01:47;9.13;;;6.32;;
63784;SDS011;49927;48.146;11.420;2022-09-16T02:04:17;8.27;;;5.57;;
63784;SDS011;49927;48.146;11.420;2022-09-16T02:06:46;8.95;;;6.03;;
63784;SDS011;49927;48.146;11.420;2022-09-16T02:09:15;8.88;;;5.88;;
63784;SDS011;49927;48.146;11.420;2022-09-16T02:11:44;8.60;;;6.80;;
63784;SDS011;49927;48.146;11.420;2022-09-16T02:14:12;9.23;;;5.65;;
63784;SDS011;49927;48.146;11.420;2022-09-16T02:16:39;8.18;;;5.60;;
63784;SDS011;49927;48.146;11.420;2022-09-16T02:19:09;9.10;;;6.10;;
63784;SDS011;49927;48.146;11.420;2022-09-16T02:21:36;19.70;;;6.28;;
63784;SDS011;49927;48.146;11.420;2022-09-16T02:24:04;9.25;;;5.75;;
63784;SDS011;49927;48.146;11.420;2022-09-16T02:26:34;8.45;;;6.53;;
63784;SDS011;49927;48.146;11.420;2022-09-16T02:29:02;9.05;;;6.18;;
63784;SDS011;49927;48.146;11.420;2022-09-16T02:31:32;8.77;;;6.47;;
63784;SDS011;49927;48.146;11.420;2022-09-16T02:33:59;8.60;;;6.65;;
63784;SDS011;49927;48.146;11.420;2022-09-16T02:36:28;7.60;;;5.68;;
63784;SDS011;49927;48.146;11.420;2022-09-16T02:38:55;7.28;;;5.68;;
63784;SDS011;49927;48.146;11.420;2022-09-16T02:41:23;7.57;;;5.90;;
63784;SDS011;49927;48.146;11.420;2022-09-16T02:43:48;9.15;;;5.88;;
63784;SDS011;49927;48.146;11.420;2022-09-16T02:46:15;10.77;;;6.32;;
63784;SDS011;49927;48.146;11.420;2022-09-16T02:48:47;7.97;;;6.38;;
63784;SDS011;49927;48.146;11.420;2022-09-16T02:51:20;11.60;;;6.50;;
63784;SDS011;49927;48.146;11.420;2022-09-16T02:53:52;9.13;;;6.05;;
63784;SDS011;49927;48.146;11.420;2022-09-16T02:56:21;10.82;;;6.03;;
63784;SDS011;49927;48.146;11.420;2022-09-16T02:58:48;7.63;;;5.60;;
63784;SDS011;49927;48.146;11.420;2022-09-16T03:01:14;7.88;;;5.88;;
63784;SDS011;49927;48.146;11.420;2022-09-16T03:03:40;6.63;;;5.63;;
63784;SDS011;49927;48.146;11.420;2022-09-16T03:06:10;8.50;;;6.30;;
63784;SDS011;49927;48.146;11.420;2022-09-16T03:08:39;8.57;;;6.18;;
63784;SDS011;49927;48.146;11.420;2022-09-16T03:11:07;7.65;;;6.13;;
63784;SDS011;49927;48.146;11.420;2022-09-16T03:13:37;12.77;;;6.30;;
63784;SDS011;49927;48.146;11.420;2022-09-16T03:16:06;7.70;;;6.00;;
63784;SDS011;49927;48.146;11.420;2022-09-16T03:18:46;11.85;;;6.57;;
63784;SDS011;49927;48.146;11.420;2022-09-16T03:21:19;12.75;;;6.65;;
63784;SDS011;49927;48.146;11.420;2022-09-16T03:23:51;8.75;;;5.47;;
63784;SDS011;49927;48.146;11.420;2022-09-16T03:26:24;7.05;;;5.78;;
63784;SDS011;49927;48.146;11.420;2022-09-16T03:28:57;10.65;;;6.88;;
63784;SDS011;49927;48.146;11.420;2022-09-16T03:31:27;9.55;;;6.75;;
63784;SDS011;49927;48.146;11.420;2022-09-16T03:33:56;7.50;;;5.50;;
63784;SDS011;49927;48.146;11.420;2022-09-16T03:36:25;8.88;;;5.72;;
63784;SDS011;49927;48.146;11.420;2022-09-16T03:38:52;7.72;;;5.72;;
63784;SDS011;49927;48.146;11.420;2022-09-16T03:41:19;12.30;;;6.68;;
63784;SDS011;49927;48.146;11.420;2022-09-16T03:43:53;8.73;;;6.10;;
63784;SDS011;49927;48.146;11.420;2022-09-16T03:46:19;9.07;;;7.15;;
63784;SDS011;49927;48.146;11.420;2022-09-16T03:48:45;11.30;;;7.00;;
63784;SDS011;49927;48.146;11.420;2022-09-16T03:51:10;8.90;;;6.85;;
63784;SDS011;49927;48.146;11.420;2022-09-16T03:53:36;13.55;;;6.63;;
63784;SDS011;49927;48.146;11.420;2022-09-16T03:56:01;9.20;;;6.72;;
63784;SDS011;49927;48.146;11.420;2022-09-16T03:58:26;8.25;;;6.53;;
63784;SDS011;49927;48.146;11.420;2022-09-16T04:00:53;10.57;;;6.82;;
63784;SDS011;49927;48.146;11.420;2022-09-16T04:03:19;10.38;;;6.80;;
63784;SDS011;49927;48.146;11.420;2022-09-16T04:05:44;12.52;;;6.85;;
63784;SDS011;49927;48.146;11.420;2022-09-16T04:08:10;12.95;;;7.15;;
63784;SDS011;49927;48.146;11.420;2022-09-16T04:10:35;10.90;;;6.93;;
63784;SDS011;49927;48.146;11.420;2022-09-16T04:13:01;10.77;;;7.32;;
63784;SDS011;49927;48.146;11.420;2022-09-16T04:15:26;13.02;;;7.72;;
63784;SDS011;49927;48.146;11.420;2022-09-16T04:17:53;9.45;;;7.80;;
63784;SDS011;49927;48.146;11.420;2022-09-16T04:20:19;11.43;;;7.90;;
63784;SDS011;49927;48.146;11.420;2022-09-16T04:22:44;11.98;;;8.32;;
63784;SDS011;49927;48.146;11.420;2022-09-16T04:25:10;13.50;;;9.05;;
63784;SDS011;49927;48.146;11.420;2022-09-16T04:27:35;11.02;;;7.88;;
63784;SDS011;49927;48.146;11.420;2022-09-16T04:30:01;12.45;;;8.95;;
63784;SDS011;49927;48.146;11.420;2022-09-16T04:32:26;15.70;;;8.65;;
63784;SDS011;49927;48.146;11.420;2022-09-16T04:34:53;13.55;;;9.55;;
63784;SDS011;49927;48.146;11.420;2022-09-16T04:37:18;13.75;;;8.63;;
63784;SDS011;49927;48.146;11.420;2022-09-16T04:39:44;12.60;;;8.35;;
63784;SDS011;49927;48.146;11.420;2022-09-16T04:42:09;13.45;;;9.30;;
63784;SDS011;49927;48.146;11.420;2022-09-16T04:44:35;12.48;;;9.48;;
63784;SDS011;49927;48.146;11.420;2022-09-16T04:47:00;13.90;;;9.38;;
63784;SDS011;49927;48.146;11.420;2022-09-16T04:49:26;11.57;;;9.05;;
63784;SDS011;49927;48.146;11.420;2022-09-16T04:51:53;16.27;;;9.88;;
63784;SDS011;49927;48.146;11.420;2022-09-16T04:54:18;12.73;;;9.35;;
63784;SDS011;49927;48.146;11.420;2022-09-16T04:56:43;14.85;;;8.82;;
63784;SDS011;49927;48.146;11.420;2022-09-16T04:59:09;13.93;;;9.15;;
63784;SDS011;49927;48.146;11.420;2022-09-16T05:01:35;14.38;;;9.45;;
63784;SDS011;49927;48.146;11.420;2022-09-16T05:04:02;14.52;;;10.07;;
63784;SDS011;49927;48.146;11.420;2022-09-16T05:06:30;15.38;;;10.85;;
63784;SDS011;49927;48.146;11.420;2022-09-16T05:08:58;14.85;;;10.13;;
63784;SDS011;49927;48.146;11.420;2022-09-16T05:11:25;16.48;;;10.63;;
63784;SDS011;49927;48.146;11.420;2022-09-16T05:13:51;21.95;;;10.00;;
63784;SDS011;49927;48.146;11.420;2022-09-16T05:16:18;16.50;;;10.50;;
63784;SDS011;49927;48.146;11.420;2022-09-16T05:18:45;13.40;;;10.02;;
63784;SDS011;49927;48.146;11.420;2022-09-16T05:21:13;15.60;;;9.95;;
63784;SDS011;49927;48.146;11.420;2022-09-16T05:23:39;14.00;;;9.93;;
63784;SDS011;49927;48.146;11.420;2022-09-16T05:26:06;17.17;;;10.38;;
63784;SDS011;49927;48.146;11.420;2022-09-16T05:28:34;14.32;;;10.90;;
63784;SDS011;49927;48.146;11.420;2022-09-16T05:31:07;14.98;;;10.57;;
63784;SDS011;49927;48.146;11.420;2022-09-16T05:33:33;17.52;;;11.02;;
63784;SDS011;49927;48.146;11.420;2022-09-16T05:36:02;16.70;;;10.48;;
63784;SDS011;49927;48.146;11.420;2022-09-16T05:38:28;15.10;;;10.85;;
63784;SDS011;49927;48.146;11.420;2022-09-16T05:40:56;15.52;;;10.13;;
63784;SDS011;49927;48.146;11.420;2022-09-16T05:43:23;13.52;;;9.32;;
63784;SDS011;49927;48.146;11.420;2022-09-16T05:45:50;18.33;;;10.50;;
63784;SDS011;49927;48.146;11.420;2022-09-16T05:48:15;14.70;;;10.70;;
63784;SDS011;49927;48.146;11.420;2022-09-16T05:50:41;17.30;;;10.63;;
63784;SDS011;49927;48.146;11.420;2022-09-16T05:53:06;16.75;;;10.60;;
63784;SDS011;49927;48.146;11.420;2022-09-16T05:55:32;12.75;;;9.40;;
63784;SDS011;49927;48.146;11.420;2022-09-16T05:57:57;15.32;;;9.35;;
63784;SDS011;49927;48.146;11.420;2022-09-16T06:00:24;14.18;;;9.65;;
63784;SDS011;49927;48.146;11.420;2022-09-16T06:02:49;15.15;;;9.15;;
63784;SDS011;49927;48.146;11.420;2022-09-16T06:05:15;16.48;;;10.48;;
63784;SDS011;49927;48.146;11.420;2022-09-16T06:07:40;12.50;;;9.63;;
63784;SDS011;49927;48.146;11.420;2022-09-16T06:10:06;13.45;;;9.95;;
63784;SDS011;49927;48.146;11.420;2022-09-16T06:12:32;16.58;;;9.88;;
63784;SDS011;49927;48.146;11.420;2022-09-16T06:14:57;15.63;;;10.10;;
63784;SDS011;49927;48.146;11.420;2022-09-16T06:17:24;13.95;;;9.30;;
63784;SDS011;49927;48.146;11.420;2022-09-16T06:19:49;15.32;;;10.57;;
63784;SDS011;49927;48.146;11.420;2022-09-16T06:22:15;19.95;;;11.75;;
63784;SDS011;49927;48.146;11.420;2022-09-16T06:24:40;15.07;;;9.63;;
63784;SDS011;49927;48.146;11.420;2022-09-16T06:27:06;17.98;;;11.05;;
63784;SDS011;49927;48.146;11.420;2022-09-16T06:29:31;19.02;;;11.82;;
63784;SDS011;49927;48.146;11.420;2022-09-16T06:31:57;17.77;;;11.52;;
63784;SDS011;49927;48.146;11.420;2022-09-16T06:34:24;17.40;;;11.05;;
63784;SDS011;49927;48.146;11.420;2022-09-16T06:36:49;18.10;;;11.20;;
63784;SDS011;49927;48.146;11.420;2022-09-16T06:39:15;18.98;;;10.90;;
63784;SDS011;49927;48.146;11.420;2022-09-16T06:41:40;19.60;;;11.88;;
63784;SDS011;49927;48.146;11.420;2022-09-16T06:44:06;15.93;;;10.15;;
63784;SDS011;49927;48.146;11.420;2022-09-16T06:46:31;23.73;;;11.80;;
63784;SDS011;49927;48.146;11.420;2022-09-16T06:48:57;15.73;;;11.18;;
63784;SDS011;49927;48.146;11.420;2022-09-16T06:51:24;15.32;;;10.75;;
63784;SDS011;49927;48.146;11.420;2022-09-16T06:53:52;18.33;;;11.60;;
63784;SDS011;49927;48.146;11.420;2022-09-16T06:56:19;18.65;;;11.55;;
63784;SDS011;49927;48.146;11.420;2022-09-16T06:58:46;15.98;;;11.73;;
63784;SDS011;49927;48.146;11.420;2022-09-16T07:01:13;13.50;;;10.30;;
63784;SDS011;49927;48.146;11.420;2022-09-16T07:03:39;16.75;;;10.77;;
63784;SDS011;49927;48.146;11.420;2022-09-16T07:06:07;14.82;;;10.68;;
63784;SDS011;49927;48.146;11.420;2022-09-16T07:08:34;14.20;;;9.80;;
63784;SDS011;49927;48.146;11.420;2022-09-16T07:11:01;14.77;;;10.57;;
63784;SDS011;49927;48.146;11.420;2022-09-16T07:13:28;13.70;;;10.25;;
63784;SDS011;49927;48.146;11.420;2022-09-16T07:15:54;15.65;;;10.88;;
63784;SDS011;49927;48.146;11.420;2022-09-16T07:18:23;13.75;;;10.38;;
63784;SDS011;49927;48.146;11.420;2022-09-16T07:20:48;17.45;;;11.15;;
63784;SDS011;49927;48.146;11.420;2022-09-16T07:23:14;17.88;;;10.38;;
63784;SDS011;49927;48.146;11.420;2022-09-16T07:25:41;16.13;;;11.18;;
63784;SDS011;49927;48.146;11.420;2022-09-16T07:28:06;21.05;;;10.75;;
63784;SDS011;49927;48.146;11.420;2022-09-16T07:30:32;16.92;;;10.75;;
63784;SDS011;49927;48.146;11.420;2022-09-16T07:32:57;21.70;;;12.40;;
63784;SDS011;49927;48.146;11.420;2022-09-16T07:35:23;22.63;;;12.82;;
63784;SDS011;49927;48.146;11.420;2022-09-16T07:37:48;15.20;;;11.68;;
63784;SDS011;49927;48.146;11.420;2022-09-16T07:40:14;17.70;;;11.30;;
63784;SDS011;49927;48.146;11.420;2022-09-16T07:42:40;14.85;;;10.52;;
63784;SDS011;49927;48.146;11.420;2022-09-16T07:45:06;19.23;;;12.27;;
63784;SDS011;49927;48.146;11.420;2022-09-16T07:47:32;18.52;;;13.45;;
63784;SDS011;49927;48.146;11.420;2022-09-16T07:49:58;13.93;;;10.25;;
63784;SDS011;49927;48.146;11.420;2022-09-16T07:52:23;13.02;;;10.23;;
63784;SDS011;49927;48.146;11.420;2022-09-16T07:54:49;14.85;;;10.10;;
63784;SDS011;49927;48.146;11.420;2022-09-16T07:57:14;13.32;;;10.38;;
63784;SDS011;49927;48.146;11.420;2022-09-16T07:59:41;19.13;;;10.90;;
63784;SDS011;49927;48.146;11.420;2022-09-16T08:02:07;12.70;;;9.57;;
63784;SDS011;49927;48.146;11.420;2022-09-16T08:04:33;14.10;;;10.50;;
63784;SDS011;49927;48.146;11.420;2022-09-16T08:06:58;23.30;;;10.93;;
63784;SDS011;49927;48.146;11.420;2022-09-16T08:09:24;14.93;;;10.20;;
63784;SDS011;49927;48.146;11.420;2022-09-16T08:11:49;17.27;;;11.80;;
63784;SDS011;49927;48.146;11.420;2022-09-16T08:14:15;13.20;;;9.15;;
63784;SDS011;49927;48.146;11.420;2022-09-16T08:16:42;13.82;;;9.93;;
63784;SDS011;49927;48.146;11.420;2022-09-16T08:19:07;14.93;;;9.80;;
63784;SDS011;49927;48.146;11.420;2022-09-16T08:21:33;18.30;;;10.05;;
63784;SDS011;49927;48.146;11.420;2022-09-16T08:23:58;17.65;;;9.68;;
63784;SDS011;49927;48.146;11.420;2022-09-16T08:26:24;15.18;;;10.15;;
63784;SDS011;49927;48.146;11.420;2022-09-16T08:28:50;15.23;;;9.57;;
63784;SDS011;49927;48.146;11.420;2022-09-16T08:31:15;15.68;;;10.02;;
63784;SDS011;49927;48.146;11.420;2022-09-16T08:33:42;13.18;;;9.48;;
63784;SDS011;49927;48.146;11.420;2022-09-16T08:36:10;13.73;;;10.57;;
63784;SDS011;49927;48.146;11.420;2022-09-16T08:38:37;13.95;;;9.93;;
63784;SDS011;49927;48.146;11.420;2022-09-16T08:41:05;14.73;;;10.20;;
63784;SDS011;49927;48.146;11.420;2022-09-16T08:43:50;15.07;;;9.90;;
63784;SDS011;49927;48.146;11.420;2022-09-16T08:46:21;15.63;;;9.73;;
63784;SDS011;49927;48.146;11.420;2022-09-16T08:48:53;16.85;;;10.80;;
63784;SDS011;49927;48.146;11.420;2022-09-16T08:51:20;14.95;;;10.30;;
63784;SDS011;49927;48.146;11.420;2022-09-16T08:53:47;13.05;;;9.15;;
63784;SDS011;49927;48.146;11.420;2022-09-16T08:56:16;12.52;;;9.30;;
63784;SDS011;49927;48.146;11.420;2022-09-16T08:58:44;13.85;;;10.07;;
63784;SDS011;49927;48.146;11.420;2022-09-16T09:01:13;20.05;;;10.27;;
63784;SDS011;49927;48.146;11.420;2022-09-16T09:03:42;16.77;;;9.80;;
63784;SDS011;49927;48.146;11.420;2022-09-16T09:06:13;14.23;;;9.32;;
63784;SDS011;49927;48.146;11.420;2022-09-16T09:08:45;14.40;;;9.32;;
63784;SDS011;49927;48.146;11.420;2022-09-16T09:11:16;15.40;;;10.25;;
63784;SDS011;49927;48.146;11.420;2022-09-16T09:13:52;14.40;;;9.15;;
63784;SDS011;49927;48.146;11.420;2022-09-16T09:16:24;15.27;;;9.25;;
63784;SDS011;49927;48.146;11.420;2022-09-16T09:18:58;13.38;;;9.68;;
63784;SDS011;49927;48.146;11.420;2022-09-16T09:24:03;16.92;;;10.02;;
63784;SDS011;49927;48.146;11.420;2022-09-16T09:26:39;19.40;;;10.35;;
63784;SDS011;49927;48.146;11.420;2022-09-16T09:29:17;15.35;;;9.93;;
63784;SDS011;49927;48.146;11.420;2022-09-16T09:31:50;20.67;;;12.45;;
63784;SDS011;49927;48.146;11.420;2022-09-16T09:34:23;20.70;;;12.45;;
63784;SDS011;49927;48.146;11.420;2022-09-16T09:37:00;18.92;;;11.90;;
63784;SDS011;49927;48.146;11.420;2022-09-16T09:39:38;20.30;;;11.55;;
63784;SDS011;49927;48.146;11.420;2022-09-16T09:42:09;16.60;;;11.90;;
63784;SDS011;49927;48.146;11.420;2022-09-16T09:44:39;18.38;;;13.15;;
63784;SDS011;49927;48.146;11.420;2022-09-16T09:47:11;20.95;;;12.82;;
63784;SDS011;49927;48.146;11.420;2022-09-16T09:49:40;20.63;;;12.23;;
63784;SDS011;49927;48.146;11.420;2022-09-16T09:52:11;23.52;;;14.02;;
63784;SDS011;49927;48.146;11.420;2022-09-16T09:54:39;18.05;;;12.73;;
63784;SDS011;49927;48.146;11.420;2022-09-16T09:57:10;23.65;;;12.75;;
63784;SDS011;49927;48.146;11.420;2022-09-16T09:59:40;25.58;;;15.48;;
63784;SDS011;49927;48.146;11.420;2022-09-16T10:02:11;23.05;;;14.70;;
63784;SDS011;49927;48.146;11.420;2022-09-16T10:04:39;24.08;;;14.40;;
63784;SDS011;49927;48.146;11.420;2022-09-16T10:07:04;25.38;;;15.38;;
63784;SDS011;49927;48.146;11.420;2022-09-16T10:09:32;27.73;;;17.33;;
63784;SDS011;49927;48.146;11.420;2022-09-16T10:11:58;28.58;;;16.70;;
63784;SDS011;49927;48.146;11.420;2022-09-16T10:14:25;24.02;;;15.38;;
63784;SDS011;49927;48.146;11.420;2022-09-16T10:16:54;26.05;;;16.58;;
63784;SDS011;49927;48.146;11.420;2022-09-16T10:19:20;30.25;;;16.33;;
63784;SDS011;49927;48.146;11.420;2022-09-16T10:21:47;36.10;;;17.10;;
63784;SDS011;49927;48.146;11.420;2022-09-16T10:24:24;31.85;;;17.30;;
63784;SDS011;49927;48.146;11.420;2022-09-16T10:26:53;29.15;;;16.15;;
63784;SDS011;49927;48.146;11.420;2022-09-16T10:29:19;24.65;;;16.63;;
63784;SDS011;49927;48.146;11.420;2022-09-16T10:31:45;28.05;;;17.60;;
63784;SDS011;49927;48.146;11.420;2022-09-16T10:34:12;26.88;;;17.58;;
63784;SDS011;49927;48.146;11.420;2022-09-16T10:36:41;27.55;;;16.77;;
63784;SDS011;49927;48.146;11.420;2022-09-16T10:39:16;29.48;;;18.05;;
63784;SDS011;49927;48.146;11.420;2022-09-16T10:41:46;28.40;;;18.30;;
63784;SDS011;49927;48.146;11.420;2022-09-16T10:44:13;32.45;;;19.67;;
63784;SDS011;49927;48.146;11.420;2022-09-16T10:46:48;30.90;;;18.67;;
63784;SDS011;49927;48.146;11.420;2022-09-16T10:49:23;25.20;;;17.00;;
63784;SDS011;49927;48.146;11.420;2022-09-16T10:51:51;32.53;;;17.27;;
63784;SDS011;49927;48.146;11.420;2022-09-16T10:54:23;33.22;;;16.33;;
63784;SDS011;49927;48.146;11.420;2022-09-16T10:56:50;27.85;;;15.88;;
63784;SDS011;49927;48.146;11.420;2022-09-16T10:59:17;20.15;;;14.05;;
63784;SDS011;49927;48.146;11.420;2022-09-16T11:01:43;25.30;;;12.82;;
63784;SDS011;49927;48.146;11.420;2022-09-16T11:04:20;22.60;;;12.00;;
63784;SDS011;49927;48.146;11.420;2022-09-16T11:06:55;28.75;;;13.73;;
63784;SDS011;49927;48.146;11.420;2022-09-16T11:09:28;29.38;;;13.93;;
63784;SDS011;49927;48.146;11.420;2022-09-16T11:12:02;25.00;;;14.40;;
63784;SDS011;49927;48.146;11.420;2022-09-16T11:17:13;22.40;;;13.68;;
63784;SDS011;49927;48.146;11.420;2022-09-16T11:19:47;26.55;;;13.75;;
63784;SDS011;49927;48.146;11.420;2022-09-16T11:22:21;24.75;;;14.73;;
63784;SDS011;49927;48.146;11.420;2022-09-16T11:24:57;28.20;;;15.73;;
63784;SDS011;49927;48.146;11.420;2022-09-16T11:27:42;27.35;;;14.68;;
63784;SDS011;49927;48.146;11.420;2022-09-16T11:30:14;25.15;;;13.38;;
63784;SDS011;49927;48.146;11.420;2022-09-16T11:32:50;23.60;;;13.40;;
63784;SDS011;49927;48.146;11.420;2022-09-16T11:38:05;21.10;;;10.30;;
63784;SDS011;49927;48.146;11.420;2022-09-16T11:50:15;17.27;;;10.95;;
63784;SDS011;49927;48.146;11.420;2022-09-16T12:12:49;17.45;;;11.63;;
63784;SDS011;49927;48.146;11.420;2022-09-16T12:15:17;21.65;;;12.00;;
63784;SDS011;49927;48.146;11.420;2022-09-16T12:17:48;20.80;;;11.98;;
63784;SDS011;49927;48.146;11.420;2022-09-16T12:20:16;19.20;;;11.63;;
63784;SDS011;49927;48.146;11.420;2022-09-16T12:22:44;18.98;;;12.15;;
63784;SDS011;49927;48.146;11.420;2022-09-16T12:25:25;18.42;;;11.55;;
63784;SDS011;49927;48.146;11.420;2022-09-16T12:27:55;20.73;;;10.45;;
63784;SDS011;49927;48.146;11.420;2022-09-16T12:30:23;17.95;;;11.20;;
63784;SDS011;49927;48.146;11.420;2022-09-16T12:32:56;17.27;;;10.52;;
63784;SDS011;49927;48.146;11.420;2022-09-16T12:35:27;16.13;;;8.10;;
63784;SDS011;49927;48.146;11.420;2022-09-16T12:37:55;15.25;;;8.60;;
63784;SDS011;49927;48.146;11.420;2022-09-16T12:40:21;15.25;;;8.43;;
63784;SDS011;49927;48.146;11.420;2022-09-16T12:52:11;13.57;;;8.18;;
63784;SDS011;49927;48.146;11.420;2022-09-16T12:57:41;12.73;;;7.68;;
63784;SDS011;49927;48.146;11.420;2022-09-16T13:00:15;11.57;;;8.07;;
63784;SDS011;49927;48.146;11.420;2022-09-16T13:02:50;12.80;;;7.40;;
63784;SDS011;49927;48.146;11.420;2022-09-16T13:05:19;9.85;;;7.45;;
63784;SDS011;49927;48.146;11.420;2022-09-16T13:07:49;11.98;;;7.75;;
63784;SDS011;49927;48.146;11.420;2022-09-16T13:10:17;11.50;;;8.10;;
63784;SDS011;49927;48.146;11.420;2022-09-16T13:12:48;8.15;;;6.30;;
63784;SDS011;49927;48.146;11.420;2022-09-16T13:15:21;8.00;;;6.53;;
63784;SDS011;49927;48.146;11.420;2022-09-16T13:17:49;13.02;;;7.82;;
63784;SDS011;49927;48.146;11.420;2022-09-16T13:20:15;10.38;;;6.43;;
63784;SDS011;49927;48.146;11.420;2022-09-16T13:22:43;12.02;;;6.95;;
63784;SDS011;49927;48.146;11.420;2022-09-16T13:25:17;12.43;;;7.60;;
63784;SDS011;49927;48.146;11.420;2022-09-16T13:27:51;13.15;;;7.47;;
63784;SDS011;49927;48.146;11.420;2022-09-16T13:30:33;11.88;;;7.45;;
63784;SDS011;49927;48.146;11.420;2022-09-16T13:33:00;10.38;;;7.00;;
63784;SDS011;49927;48.146;11.420;2022-09-16T13:35:44;13.27;;;8.52;;
63784;SDS011;49927;48.146;11.420;2022-09-16T13:38:22;11.88;;;8.05;;
63784;SDS011;49927;48.146;11.420;2022-09-16T13:40:55;13.05;;;8.25;;
63784;SDS011;49927;48.146;11.420;2022-09-16T13:43:28;12.57;;;7.53;;
63784;SDS011;49927;48.146;11.420;2022-09-16T13:46:08;12.18;;;7.57;;
63784;SDS011;49927;48.146;11.420;2022-09-16T13:48:38;12.02;;;7.28;;
63784;SDS011;49927;48.146;11.420;2022-09-16T13:51:06;13.00;;;7.50;;
63784;SDS011;49927;48.146;11.420;2022-09-16T13:53:35;10.23;;;7.25;;
63784;SDS011;49927;48.146;11.420;2022-09-16T13:56:04;8.63;;;6.47;;
63784;SDS011;49927;48.146;11.420;2022-09-16T13:58:33;13.40;;;6.75;;
63784;SDS011;49927;48.146;11.420;2022-09-16T14:01:03;11.80;;;7.20;;
63784;SDS011;49927;48.146;11.420;2022-09-16T14:03:41;11.25;;;7.13;;
63784;SDS011;49927;48.146;11.420;2022-09-16T14:06:18;10.25;;;8.02;;
63784;SDS011;49927;48.146;11.420;2022-09-16T14:08:53;12.07;;;7.18;;
63784;SDS011;49927;48.146;11.420;2022-09-16T14:11:24;13.93;;;7.80;;
63784;SDS011;49927;48.146;11.420;2022-09-16T14:13:54;9.05;;;6.53;;
63784;SDS011;49927;48.146;11.420;2022-09-16T14:16:21;13.20;;;7.28;;
63784;SDS011;49927;48.146;11.420;2022-09-16T14:18:52;10.60;;;7.10;;
63784;SDS011;49927;48.146;11.420;2022-09-16T14:21:20;8.80;;;6.70;;
63784;SDS011;49927;48.146;11.420;2022-09-16T14:23:46;9.68;;;6.57;;
63784;SDS011;49927;48.146;11.420;2022-09-16T14:26:12;14.73;;;7.18;;
63784;SDS011;49927;48.146;11.420;2022-09-16T14:28:40;10.98;;;6.97;;
63784;SDS011;49927;48.146;11.420;2022-09-16T14:31:06;11.20;;;7.00;;
63784;SDS011;49927;48.146;11.420;2022-09-16T14:33:34;11.05;;;7.57;;
63784;SDS011;49927;48.146;11.420;2022-09-16T14:36:07;14.48;;;7.57;;
63784;SDS011;49927;48.146;11.420;2022-09-16T14:38:35;9.70;;;7.97;;
63784;SDS011;49927;48.146;11.420;2022-09-16T14:41:04;9.40;;;7.68;;
63784;SDS011;49927;48.146;11.420;2022-09-16T14:43:30;14.07;;;7.38;;
63784;SDS011;49927;48.146;11.420;2022-09-16T14:45:57;10.35;;;7.05;;
63784;SDS011;49927;48.146;11.420;2022-09-16T14:48:25;11.85;;;7.50;;
63784;SDS011;49927;48.146;11.420;2022-09-16T14:50:52;13.75;;;8.10;;
63784;SDS011;49927;48.146;11.420;2022-09-16T14:53:21;9.23;;;7.30;;
63784;SDS011;49927;48.146;11.420;2022-09-16T14:55:49;10.27;;;6.95;;
63784;SDS011;49927;48.146;11.420;2022-09-16T14:58:14;12.82;;;8.23;;
63784;SDS011;49927;48.146;11.420;2022-09-16T15:00:41;11.80;;;7.97;;
63784;SDS011;49927;48.146;11.420;2022-09-16T15:03:11;11.45;;;8.20;;
63784;SDS011;49927;48.146;11.420;2022-09-16T15:05:39;11.43;;;7.80;;
63784;SDS011;49927;48.146;11.420;2022-09-16T15:08:07;9.43;;;7.43;;
63784;SDS011;49927;48.146;11.420;2022-09-16T15:10:34;11.35;;;8.30;;
63784;SDS011;49927;48.146;11.420;2022-09-16T15:13:01;10.52;;;7.32;;
63784;SDS011;49927;48.146;11.420;2022-09-16T15:15:29;11.95;;;8.60;;
63784;SDS011;49927;48.146;11.420;2022-09-16T15:17:58;9.68;;;7.20;;
63784;SDS011;49927;48.146;11.420;2022-09-16T15:20:27;9.30;;;7.15;;
63784;SDS011;49927;48.146;11.420;2022-09-16T15:22:55;11.88;;;8.15;;